Time;durP1;ratioP1;P1;durP2;ratioP2;P2;SDS_P1;SDS_P2;PMS_P1;PMS_P2;Temp;Humidity;BMP_temperature;BMP_pressure;BME280_temperature;BME280_humidity;BME280_pressure;Samples;Min_cycle;Max_cycle;Signal;HPM_P1;HPM_P2
2020/12/12 00:01:50;;;;;;;37.10;33.70;;;;;;;;;;5075875;28;20747;-82
2020/12/12 00:04:17;;;;;;;38.17;34.42;;;;;;;;;;5076352;28;20220;-82
2020/12/12 00:06:44;;;;;;;39.35;35.70;;;;;;;;;;5076493;28;20554;-82
2020/12/12 00:09:11;;;;;;;37.08;33.58;;;;;;;;;;5076302;28;20188;-82
2020/12/12 00:11:38;;;;;;;38.25;34.50;;;;;;;;;;5074842;28;20203;-82
2020/12/12 00:14:06;;;;;;;31.42;28.58;;;;;;;;;;5075854;28;20201;-82
2020/12/12 00:16:33;;;;;;;39.10;35.50;;;;;;;;;;5076247;28;20184;-82
2020/12/12 00:18:59;;;;;;;39.60;35.90;;;;;;;;;;5075843;28;20185;-82
2020/12/12 00:21:26;;;;;;;36.80;33.05;;;;;;;;;;5075445;28;20216;-83
2020/12/12 00:23:53;;;;;;;37.78;33.97;;;;;;;;;;5075561;28;20352;-82
2020/12/12 00:26:21;;;;;;;37.20;33.60;;;;;;;;;;5075767;28;20196;-82
2020/12/12 00:28:49;;;;;;;37.92;34.22;;;;;;;;;;5075794;28;20216;-82
2020/12/12 00:31:16;;;;;;;35.20;31.52;;;;;;;;;;5075796;28;20192;-82
2020/12/12 00:33:43;;;;;;;39.05;34.97;;;;;;;;;;5075583;28;20673;-82
2020/12/12 00:36:10;;;;;;;33.20;30.08;;;;;;;;;;5075453;28;20187;-82
2020/12/12 00:38:37;;;;;;;38.45;34.85;;;;;;;;;;5075416;28;20200;-82
2020/12/12 00:41:05;;;;;;;39.47;35.70;;;;;;;;;;5075628;28;20192;-82
2020/12/12 00:43:32;;;;;;;38.60;35.08;;;;;;;;;;5075522;28;20696;-82
2020/12/12 00:45:59;;;;;;;36.13;32.72;;;;;;;;;;5076272;28;20204;-82
2020/12/12 00:48:26;;;;;;;39.72;35.92;;;;;;;;;;5075135;28;20192;-82
2020/12/12 00:50:54;;;;;;;36.40;32.90;;;;;;;;;;5074962;28;20688;-82
2020/12/12 00:53:20;;;;;;;37.88;34.17;;;;;;;;;;5057591;28;20201;-82
2020/12/12 00:55:47;;;;;;;35.67;32.13;;;;;;;;;;5075112;28;20269;-82
2020/12/12 00:58:14;;;;;;;35.28;31.95;;;;;;;;;;5075348;28;20184;-82
2020/12/12 01:00:41;;;;;;;37.15;33.60;;;;;;;;;;5075031;28;20187;-81
2020/12/12 01:03:09;;;;;;;37.40;33.80;;;;;;;;;;5074700;28;20228;-82
2020/12/12 01:05:37;;;;;;;39.00;35.10;;;;;;;;;;5075518;28;20215;-82
2020/12/12 01:08:04;;;;;;;32.47;29.55;;;;;;;;;;5075153;28;20215;-82
2020/12/12 01:10:31;;;;;;;38.42;34.72;;;;;;;;;;5074839;28;20198;-82
2020/12/12 01:12:58;;;;;;;38.00;34.30;;;;;;;;;;5074891;28;20638;-82
2020/12/12 01:15:24;;;;;;;35.65;32.33;;;;;;;;;;5074842;28;20200;-82
2020/12/12 01:17:51;;;;;;;37.15;33.65;;;;;;;;;;5074810;28;20197;-82
2020/12/12 01:20:19;;;;;;;38.55;35.05;;;;;;;;;;5074885;28;20192;-82
2020/12/12 01:22:46;;;;;;;34.22;30.92;;;;;;;;;;5075071;28;20195;-81
2020/12/12 01:25:13;;;;;;;37.40;33.80;;;;;;;;;;5074578;28;20307;-82
2020/12/12 01:27:40;;;;;;;37.35;33.65;;;;;;;;;;5073241;28;20270;-82
2020/12/12 01:30:06;;;;;;;35.88;32.58;;;;;;;;;;5075124;28;20242;-82
2020/12/12 01:32:33;;;;;;;36.92;33.33;;;;;;;;;;5075174;28;20192;-82
2020/12/12 01:35:00;;;;;;;37.38;33.85;;;;;;;;;;5073519;28;20207;-82
2020/12/12 01:37:28;;;;;;;32.97;30.10;;;;;;;;;;5074581;28;20192;-82
2020/12/12 01:39:55;;;;;;;35.05;31.95;;;;;;;;;;5074777;28;20252;-82
2020/12/12 01:42:23;;;;;;;37.13;33.55;;;;;;;;;;5074505;28;20189;-82
2020/12/12 01:44:55;;;;;;;36.97;33.58;;;;;;;;;;5074378;28;20217;-82
2020/12/12 01:47:23;;;;;;;33.92;30.92;;;;;;;;;;5074050;28;20212;-83
2020/12/12 01:49:50;;;;;;;37.55;33.85;;;;;;;;;;5074762;28;20185;-82
2020/12/12 01:52:17;;;;;;;37.13;33.72;;;;;;;;;;5074766;28;20224;-82
2020/12/12 01:54:47;;;;;;;36.30;32.90;;;;;;;;;;5074541;28;20202;-82
2020/12/12 01:57:14;;;;;;;36.80;33.25;;;;;;;;;;5057344;28;20228;-82
2020/12/12 01:59:41;;;;;;;38.65;34.95;;;;;;;;;;5074456;28;20274;-83
2020/12/12 02:02:08;;;;;;;37.30;33.95;;;;;;;;;;5073267;28;20751;-82
2020/12/12 02:04:36;;;;;;;38.60;35.00;;;;;;;;;;5074195;28;20637;-82
2020/12/12 02:07:03;;;;;;;38.45;34.55;;;;;;;;;;5074441;28;20185;-82
2020/12/12 02:09:30;;;;;;;35.42;32.38;;;;;;;;;;5074234;28;20200;-82
2020/12/12 02:11:59;;;;;;;37.78;34.30;;;;;;;;;;5073835;28;20208;-82
2020/12/12 02:14:26;;;;;;;36.83;33.53;;;;;;;;;;5056506;28;20653;-82
2020/12/12 02:16:54;;;;;;;37.88;34.35;;;;;;;;;;5056147;28;20196;-82
2020/12/12 02:19:21;;;;;;;35.10;31.75;;;;;;;;;;5074253;28;20185;-82
2020/12/12 02:21:56;;;;;;;35.47;32.22;;;;;;;;;;5073772;28;20194;-82
2020/12/12 02:24:23;;;;;;;35.78;32.35;;;;;;;;;;5073095;28;20234;-82
2020/12/12 02:26:50;;;;;;;36.10;32.60;;;;;;;;;;5074036;28;20199;-82
2020/12/12 02:29:17;;;;;;;36.75;33.35;;;;;;;;;;5074171;28;20196;-82
2020/12/12 02:31:44;;;;;;;35.85;32.65;;;;;;;;;;5073845;28;20192;-83
2020/12/12 02:34:11;;;;;;;34.25;31.10;;;;;;;;;;5073864;28;20200;-82
2020/12/12 02:36:38;;;;;;;37.78;34.17;;;;;;;;;;5073330;28;20648;-82
2020/12/12 02:39:09;;;;;;;33.13;29.98;;;;;;;;;;5073801;28;20218;-82
2020/12/12 02:41:36;;;;;;;35.30;32.00;;;;;;;;;;5072722;28;20617;-82
2020/12/12 02:44:03;;;;;;;36.03;32.83;;;;;;;;;;5073559;28;20285;-82
2020/12/12 02:46:30;;;;;;;35.92;32.38;;;;;;;;;;5059906;28;20198;-82
2020/12/12 02:48:58;;;;;;;36.47;33.17;;;;;;;;;;5078057;28;20193;-82
2020/12/12 02:51:25;;;;;;;36.40;33.00;;;;;;;;;;5077751;28;20603;-82
2020/12/12 02:53:51;;;;;;;35.85;32.40;;;;;;;;;;5078561;28;20270;-82
2020/12/12 02:56:20;;;;;;;38.42;34.92;;;;;;;;;;5077918;28;20223;-82
2020/12/12 02:58:46;;;;;;;38.20;34.80;;;;;;;;;;5078302;28;20196;-82
2020/12/12 03:01:14;;;;;;;36.90;33.65;;;;;;;;;;5077609;28;20190;-82
2020/12/12 03:03:40;;;;;;;35.50;32.40;;;;;;;;;;5060044;28;20261;-82
2020/12/12 03:06:07;;;;;;;35.33;32.05;;;;;;;;;;5077382;28;20240;-81
2020/12/12 03:08:34;;;;;;;35.53;32.15;;;;;;;;;;5078220;28;20590;-82
2020/12/12 03:11:01;;;;;;;36.83;33.60;;;;;;;;;;5077646;28;20204;-82
2020/12/12 03:13:29;;;;;;;34.22;31.02;;;;;;;;;;5077623;28;20197;-82
2020/12/12 03:15:56;;;;;;;32.28;29.55;;;;;;;;;;5077452;28;20712;-82
2020/12/12 03:18:23;;;;;;;36.15;32.75;;;;;;;;;;5076219;28;20204;-82
2020/12/12 03:20:49;;;;;;;36.35;32.97;;;;;;;;;;5077764;28;20223;-82
2020/12/12 03:23:16;;;;;;;36.47;33.10;;;;;;;;;;5059812;28;20549;-82
2020/12/12 03:25:43;;;;;;;35.00;31.73;;;;;;;;;;5077428;28;20200;-82
2020/12/12 03:28:10;;;;;;;35.10;31.90;;;;;;;;;;5077462;28;20242;-82
2020/12/12 03:30:38;;;;;;;34.78;31.67;;;;;;;;;;5077244;28;20196;-82
2020/12/12 03:33:05;;;;;;;35.03;31.92;;;;;;;;;;5077183;28;20192;-82
2020/12/12 03:35:32;;;;;;;34.50;31.20;;;;;;;;;;5077386;28;20262;-82
2020/12/12 03:37:59;;;;;;;34.25;31.20;;;;;;;;;;5075998;28;20535;-82
2020/12/12 03:40:26;;;;;;;35.53;32.38;;;;;;;;;;5076831;28;20262;-82
2020/12/12 03:42:53;;;;;;;33.42;30.52;;;;;;;;;;5077161;28;20189;-82
2020/12/12 03:45:21;;;;;;;37.45;33.90;;;;;;;;;;5076856;28;20217;-82
2020/12/12 03:47:49;;;;;;;35.05;31.88;;;;;;;;;;5076095;28;20699;-82
2020/12/12 03:50:16;;;;;;;34.92;31.83;;;;;;;;;;5076650;28;20197;-81
2020/12/12 03:52:43;;;;;;;34.50;31.30;;;;;;;;;;5077275;28;20192;-82
2020/12/12 03:55:10;;;;;;;35.30;32.20;;;;;;;;;;5076929;28;20581;-82
2020/12/12 03:57:36;;;;;;;35.80;32.65;;;;;;;;;;5076250;28;20194;-82
2020/12/12 04:00:04;;;;;;;35.78;32.40;;;;;;;;;;5075524;28;20293;-82
2020/12/12 04:02:31;;;;;;;29.00;26.60;;;;;;;;;;5076418;28;20236;-82
2020/12/12 04:04:59;;;;;;;33.33;30.33;;;;;;;;;;5076396;28;20584;-82
2020/12/12 04:07:26;;;;;;;33.45;30.50;;;;;;;;;;5075173;28;20252;-82
2020/12/12 04:09:53;;;;;;;34.72;31.60;;;;;;;;;;5076391;28;20638;-82
2020/12/12 04:12:20;;;;;;;34.85;31.90;;;;;;;;;;5076408;28;20185;-82
2020/12/12 04:14:46;;;;;;;33.33;30.48;;;;;;;;;;5076521;28;20203;-82
2020/12/12 04:17:13;;;;;;;33.92;30.75;;;;;;;;;;5076593;28;20200;-82
2020/12/12 04:19:40;;;;;;;34.30;31.13;;;;;;;;;;5076507;28;20220;-82
2020/12/12 04:22:08;;;;;;;33.10;30.30;;;;;;;;;;5076544;28;20202;-82
2020/12/12 04:24:35;;;;;;;33.97;30.95;;;;;;;;;;5076109;28;20220;-80
2020/12/12 04:27:02;;;;;;;33.25;30.10;;;;;;;;;;5076261;28;20189;-82
2020/12/12 04:29:29;;;;;;;33.55;30.52;;;;;;;;;;5076418;28;20320;-82
2020/12/12 04:31:56;;;;;;;34.72;31.52;;;;;;;;;;5076438;28;20217;-82
2020/12/12 04:34:23;;;;;;;33.17;30.48;;;;;;;;;;5076080;28;20559;-82
2020/12/12 04:36:49;;;;;;;35.72;32.42;;;;;;;;;;5075891;28;20197;-82
2020/12/12 04:39:17;;;;;;;33.63;30.45;;;;;;;;;;5076276;28;20197;-81
2020/12/12 04:41:45;;;;;;;32.90;30.08;;;;;;;;;;5075762;28;20655;-82
2020/12/12 04:44:12;;;;;;;34.75;31.48;;;;;;;;;;5058336;28;20240;-82
2020/12/12 04:46:39;;;;;;;32.50;29.60;;;;;;;;;;5075962;28;20193;-82
2020/12/12 04:49:06;;;;;;;31.92;29.25;;;;;;;;;;5076164;28;20193;-84
2020/12/12 04:51:33;;;;;;;29.35;26.60;;;;;;;;;;5076245;28;20544;-83
2020/12/12 04:54:01;;;;;;;33.28;30.40;;;;;;;;;;5076293;28;20197;-84
2020/12/12 04:56:34;;;;;;;33.38;30.42;;;;;;;;;;5075858;28;20225;-83
2020/12/12 04:59:02;;;;;;;32.95;30.05;;;;;;;;;;5076014;28;20197;-83
2020/12/12 05:01:32;;;;;;;32.92;30.08;;;;;;;;;;5075414;28;20671;-84
2020/12/12 05:03:59;;;;;;;34.50;31.50;;;;;;;;;;5075696;28;20303;-84
2020/12/12 05:06:28;;;;;;;33.65;30.67;;;;;;;;;;5075835;28;20583;-84
2020/12/12 05:08:55;;;;;;;33.83;30.95;;;;;;;;;;5075452;28;20714;-84
2020/12/12 05:11:24;;;;;;;33.75;30.77;;;;;;;;;;5075997;28;20189;-84
2020/12/12 05:13:52;;;;;;;32.90;30.05;;;;;;;;;;5075270;28;20209;-84
2020/12/12 05:16:19;;;;;;;32.88;29.98;;;;;;;;;;5075271;28;20193;-83
2020/12/12 05:18:46;;;;;;;35.13;31.92;;;;;;;;;;5075294;28;20280;-84
2020/12/12 05:21:14;;;;;;;31.33;28.83;;;;;;;;;;5075041;28;20190;-84
2020/12/12 05:23:41;;;;;;;32.70;29.77;;;;;;;;;;5075342;28;20185;-83
2020/12/12 05:26:08;;;;;;;34.25;31.25;;;;;;;;;;5075024;28;20204;-84
2020/12/12 05:28:35;;;;;;;30.80;28.17;;;;;;;;;;5075488;28;20194;-84
2020/12/12 05:31:03;;;;;;;33.72;30.85;;;;;;;;;;5075167;28;20189;-84
2020/12/12 05:33:30;;;;;;;32.78;30.00;;;;;;;;;;5075489;28;20280;-84
2020/12/12 05:35:57;;;;;;;30.75;28.50;;;;;;;;;;5075181;28;20606;-84
2020/12/12 05:38:24;;;;;;;33.33;30.33;;;;;;;;;;5075365;28;20189;-84
2020/12/12 05:40:54;;;;;;;32.00;29.20;;;;;;;;;;5074749;28;20187;-83
2020/12/12 05:43:29;;;;;;;32.25;29.25;;;;;;;;;;5074645;28;20236;-84
2020/12/12 05:45:55;;;;;;;33.33;30.42;;;;;;;;;;5074742;28;20196;-83
2020/12/12 05:48:24;;;;;;;32.92;29.92;;;;;;;;;;5074567;28;20193;-84
2020/12/12 05:50:50;;;;;;;32.28;29.52;;;;;;;;;;5074862;28;20193;-84
2020/12/12 05:53:17;;;;;;;34.70;31.60;;;;;;;;;;5073864;28;20201;-84
2020/12/12 05:55:46;;;;;;;33.13;30.27;;;;;;;;;;5074660;28;20259;-83
2020/12/12 05:58:14;;;;;;;32.50;29.70;;;;;;;;;;5075564;28;20595;-84
2020/12/12 06:00:42;;;;;;;34.50;31.55;;;;;;;;;;5074521;28;20201;-84
2020/12/12 06:03:17;;;;;;;34.92;31.63;;;;;;;;;;5074392;28;20272;-84
2020/12/12 06:05:46;;;;;;;33.25;30.20;;;;;;;;;;5074483;28;20227;-83
2020/12/12 06:08:14;;;;;;;35.10;32.00;;;;;;;;;;5073482;28;20210;-83
2020/12/12 06:10:44;;;;;;;32.83;30.10;;;;;;;;;;5074674;28;20604;-83
2020/12/12 06:13:11;;;;;;;33.65;30.63;;;;;;;;;;5057030;28;20193;-83
2020/12/12 06:15:38;;;;;;;32.22;29.48;;;;;;;;;;5074550;28;20255;-83
2020/12/12 06:18:27;;;;;;;34.30;31.20;;;;;;;;;;5074593;28;20192;-84
2020/12/12 06:20:55;;;;;;;36.22;33.13;;;;;;;;;;5074191;28;20626;-84
2020/12/12 06:23:23;;;;;;;32.33;29.67;;;;;;;;;;5074361;28;20189;-84
2020/12/12 06:25:49;;;;;;;33.33;30.27;;;;;;;;;;5074116;28;20217;-84
2020/12/12 06:28:20;;;;;;;34.75;31.65;;;;;;;;;;5074181;28;20202;-84
2020/12/12 06:30:47;;;;;;;39.17;35.72;;;;;;;;;;5074288;28;20608;-84
2020/12/12 06:33:14;;;;;;;38.67;35.28;;;;;;;;;;5074168;28;20198;-83
2020/12/12 06:35:40;;;;;;;34.03;31.08;;;;;;;;;;5074096;28;20197;-83
2020/12/12 06:38:26;;;;;;;37.03;33.72;;;;;;;;;;5073935;28;20192;-83
2020/12/12 06:40:54;;;;;;;43.75;39.85;;;;;;;;;;5074510;28;20226;-83
2020/12/12 06:43:28;;;;;;;35.38;32.33;;;;;;;;;;5074757;28;20238;-83
2020/12/12 06:45:56;;;;;;;40.65;36.75;;;;;;;;;;5074250;28;20213;-83
2020/12/12 06:48:24;;;;;;;38.10;34.80;;;;;;;;;;5073966;28;20205;-83
2020/12/12 06:50:51;;;;;;;37.00;34.00;;;;;;;;;;5074365;28;20303;-83
2020/12/12 06:53:19;;;;;;;39.95;36.65;;;;;;;;;;5074224;28;20197;-83
2020/12/12 06:55:47;;;;;;;37.22;34.03;;;;;;;;;;5073709;28;20702;-83
2020/12/12 06:58:23;;;;;;;37.63;34.17;;;;;;;;;;5074221;28;20190;-83
2020/12/12 07:00:50;;;;;;;35.28;32.28;;;;;;;;;;5074442;28;20518;-83
2020/12/12 07:03:22;;;;;;;35.03;32.03;;;;;;;;;;5056250;28;20585;-83
2020/12/12 07:05:48;;;;;;;34.40;31.45;;;;;;;;;;5074922;28;20232;-83
2020/12/12 07:08:15;;;;;;;34.13;31.23;;;;;;;;;;5074178;28;20704;-83
2020/12/12 07:10:43;;;;;;;33.80;30.90;;;;;;;;;;5074959;28;20261;-83
2020/12/12 07:13:12;;;;;;;33.45;30.50;;;;;;;;;;5078973;28;20193;-83
2020/12/12 07:15:39;;;;;;;34.42;31.48;;;;;;;;;;5079041;28;20635;-83
2020/12/12 07:18:07;;;;;;;32.75;29.95;;;;;;;;;;5061253;28;20202;-83
2020/12/12 07:20:34;;;;;;;34.65;31.88;;;;;;;;;;5077512;28;20632;-83
2020/12/12 07:23:02;;;;;;;33.70;30.70;;;;;;;;;;5073887;28;20194;-83
2020/12/12 07:25:30;;;;;;;32.20;29.50;;;;;;;;;;5073883;28;20217;-84
2020/12/12 07:27:57;;;;;;;34.53;31.58;;;;;;;;;;5073798;28;20188;-83
2020/12/12 07:30:25;;;;;;;34.55;31.52;;;;;;;;;;5073966;28;20254;-83
2020/12/12 07:32:51;;;;;;;33.15;30.45;;;;;;;;;;5075908;28;20215;-83
2020/12/12 07:35:18;;;;;;;33.40;30.60;;;;;;;;;;5077512;28;20197;-83
2020/12/12 07:37:45;;;;;;;36.25;32.95;;;;;;;;;;5077723;28;20184;-83
2020/12/12 07:40:12;;;;;;;33.88;30.98;;;;;;;;;;5077644;28;20254;-83
2020/12/12 07:42:39;;;;;;;33.22;30.48;;;;;;;;;;5077863;28;20519;-83
2020/12/12 07:45:16;;;;;;;32.60;29.90;;;;;;;;;;5077778;28;20221;-83
2020/12/12 07:47:44;;;;;;;32.92;29.95;;;;;;;;;;5077314;28;20200;-83
2020/12/12 07:50:11;;;;;;;33.05;30.05;;;;;;;;;;5077114;28;20198;-84
2020/12/12 07:52:40;;;;;;;32.97;30.17;;;;;;;;;;5076426;28;20205;-84
2020/12/12 07:55:10;;;;;;;32.25;29.60;;;;;;;;;;5077185;28;20585;-83
2020/12/12 07:57:40;;;;;;;33.15;30.25;;;;;;;;;;5060125;28;20197;-84
2020/12/12 08:00:08;;;;;;;35.60;32.17;;;;;;;;;;5076749;28;20190;-83
2020/12/12 08:02:35;;;;;;;42.13;37.80;;;;;;;;;;5076597;28;20241;-83
2020/12/12 08:05:03;;;;;;;42.42;38.22;;;;;;;;;;5077082;28;20598;-84
2020/12/12 08:07:31;;;;;;;58.90;45.72;;;;;;;;;;5042808;28;20600;-84
2020/12/12 08:09:58;;;;;;;118.25;69.95;;;;;;;;;;5076785;28;20213;-83
2020/12/12 08:12:29;;;;;;;63.22;43.78;;;;;;;;;;5077252;28;20242;-84
2020/12/12 08:14:57;;;;;;;73.88;53.33;;;;;;;;;;5076795;28;20246;-84
2020/12/12 08:17:27;;;;;;;47.25;41.70;;;;;;;;;;5076726;28;20239;-84
2020/12/12 08:19:55;;;;;;;38.22;34.60;;;;;;;;;;5077002;28;20204;-87
2020/12/12 08:22:25;;;;;;;36.70;33.08;;;;;;;;;;5076516;28;20185;-87
2020/12/12 08:24:52;;;;;;;39.75;35.47;;;;;;;;;;5076377;28;20273;-87
2020/12/12 08:27:22;;;;;;;43.75;38.22;;;;;;;;;;5076841;28;20318;-87
2020/12/12 08:29:50;;;;;;;36.58;33.05;;;;;;;;;;5077292;28;20189;-87
2020/12/12 08:32:27;;;;;;;39.92;35.97;;;;;;;;;;5076712;28;20191;-87
2020/12/12 08:35:07;;;;;;;39.17;35.08;;;;;;;;;;5076642;28;20184;-87
2020/12/12 08:37:35;;;;;;;43.65;38.63;;;;;;;;;;5076652;28;20642;-87
2020/12/12 08:40:05;;;;;;;50.90;45.50;;;;;;;;;;5076705;28;20248;-87
2020/12/12 08:42:32;;;;;;;75.82;55.67;;;;;;;;;;5074903;28;20223;-81
2020/12/12 08:45:12;;;;;;;50.88;46.40;;;;;;;;;;5075271;28;20228;-80
2020/12/12 08:47:39;;;;;;;32.40;29.67;;;;;;;;;;5075346;28;20631;-79
2020/12/12 08:50:06;;;;;;;34.03;31.10;;;;;;;;;;5075343;28;20212;-79
2020/12/12 08:52:32;;;;;;;33.95;31.15;;;;;;;;;;5074506;28;20251;-80
2020/12/12 08:55:00;;;;;;;33.20;30.60;;;;;;;;;;5075254;28;20221;-79
2020/12/12 08:57:27;;;;;;;32.70;30.02;;;;;;;;;;5075173;28;20198;-79
2020/12/12 09:00:00;;;;;;;33.20;30.42;;;;;;;;;;5057709;28;20563;-79
2020/12/12 09:02:28;;;;;;;34.75;31.88;;;;;;;;;;5075026;28;20281;-80
2020/12/12 09:05:10;;;;;;;33.83;31.13;;;;;;;;;;5075150;28;20793;-80
2020/12/12 09:07:37;;;;;;;34.08;31.35;;;;;;;;;;5073863;28;20201;-79
2020/12/12 09:10:09;;;;;;;33.25;30.45;;;;;;;;;;5075163;28;20350;-80
2020/12/12 09:12:46;;;;;;;32.97;30.38;;;;;;;;;;5075002;28;20194;-79
2020/12/12 09:15:13;;;;;;;31.00;28.40;;;;;;;;;;5074848;28;20705;-79
2020/12/12 09:17:39;;;;;;;31.52;29.02;;;;;;;;;;5075087;28;20221;-79
2020/12/12 09:20:08;;;;;;;33.38;30.67;;;;;;;;;;5075112;28;20596;-79
2020/12/12 09:22:35;;;;;;;33.75;30.90;;;;;;;;;;5073671;28;20255;-80
2020/12/12 09:25:02;;;;;;;33.25;30.40;;;;;;;;;;5074705;28;20217;-80
2020/12/12 09:27:30;;;;;;;32.72;30.13;;;;;;;;;;5074491;28;20655;-80
2020/12/12 09:29:57;;;;;;;33.00;30.27;;;;;;;;;;5074311;28;20206;-79
2020/12/12 09:32:24;;;;;;;31.10;28.60;;;;;;;;;;5073357;28;20610;-80
2020/12/12 09:34:51;;;;;;;37.65;34.50;;;;;;;;;;5073489;28;20198;-80
2020/12/12 09:37:18;;;;;;;33.97;31.20;;;;;;;;;;5074013;28;20211;-80
2020/12/12 09:39:45;;;;;;;32.25;29.55;;;;;;;;;;5074243;28;20197;-79
2020/12/12 09:42:12;;;;;;;32.97;30.30;;;;;;;;;;5074570;28;20193;-80
2020/12/12 09:44:40;;;;;;;33.70;30.90;;;;;;;;;;5074556;28;20217;-80
2020/12/12 09:47:06;;;;;;;34.22;31.30;;;;;;;;;;5074367;28;20190;-80
2020/12/12 09:49:33;;;;;;;36.47;33.15;;;;;;;;;;5073932;28;20192;-81
2020/12/12 09:52:00;;;;;;;37.45;34.17;;;;;;;;;;5073937;28;20576;-80
2020/12/12 09:54:27;;;;;;;33.47;30.58;;;;;;;;;;5072546;28;20206;-81
2020/12/12 09:56:54;;;;;;;36.65;33.17;;;;;;;;;;5074374;28;20583;-79
2020/12/12 09:59:21;;;;;;;34.53;31.58;;;;;;;;;;5074702;28;20190;-84
2020/12/12 10:01:49;;;;;;;32.67;29.90;;;;;;;;;;5074412;28;20229;-82
2020/12/12 10:04:16;;;;;;;33.60;30.77;;;;;;;;;;5073273;28;20203;-79
2020/12/12 10:06:43;;;;;;;33.90;30.83;;;;;;;;;;5074111;28;20189;-79
2020/12/12 10:09:10;;;;;;;34.13;31.30;;;;;;;;;;5056351;28;20190;-78
2020/12/12 10:11:36;;;;;;;31.95;29.45;;;;;;;;;;5073739;28;20193;-78
2020/12/12 10:14:03;;;;;;;33.53;30.85;;;;;;;;;;5072997;28;20749;-87
2020/12/12 10:16:30;;;;;;;37.30;34.40;;;;;;;;;;5073372;28;20199;-83
2020/12/12 10:18:58;;;;;;;36.75;33.90;;;;;;;;;;5061722;28;20256;-83
2020/12/12 10:21:25;;;;;;;33.08;30.45;;;;;;;;;;5054319;28;20194;-82
2020/12/12 10:23:55;;;;;;;31.55;29.08;;;;;;;;;;5054142;28;20282;-82
2020/12/12 10:26:22;;;;;;;32.33;30.02;;;;;;;;;;5053687;28;20326;-84
2020/12/12 10:28:48;;;;;;;32.42;29.83;;;;;;;;;;5054466;28;20187;-84
2020/12/12 10:31:17;;;;;;;30.52;28.13;;;;;;;;;;5054535;28;20624;-85
2020/12/12 10:33:43;;;;;;;31.30;28.80;;;;;;;;;;5053983;28;20202;-85
2020/12/12 10:36:11;;;;;;;30.92;28.52;;;;;;;;;;5054496;28;20272;-85
2020/12/12 10:38:38;;;;;;;30.60;28.25;;;;;;;;;;5036439;28;20198;-83
2020/12/12 10:41:11;;;;;;;29.45;27.25;;;;;;;;;;5053910;28;20203;-84
2020/12/12 10:43:38;;;;;;;29.23;26.83;;;;;;;;;;5054448;28;20634;-84
2020/12/12 10:46:05;;;;;;;30.88;28.45;;;;;;;;;;5054367;28;20218;-84
2020/12/12 10:48:32;;;;;;;29.88;27.58;;;;;;;;;;5054358;28;20214;-84
2020/12/12 10:50:59;;;;;;;29.35;27.15;;;;;;;;;;5054183;28;20191;-84
2020/12/12 10:53:26;;;;;;;29.50;26.92;;;;;;;;;;5052784;28;20201;-84
2020/12/12 10:55:53;;;;;;;29.15;26.95;;;;;;;;;;5054139;28;20716;-84
2020/12/12 10:58:20;;;;;;;30.40;28.15;;;;;;;;;;5053999;28;20630;-84
2020/12/12 11:00:50;;;;;;;30.90;28.58;;;;;;;;;;5053785;28;20269;-82
2020/12/12 11:03:17;;;;;;;29.45;27.20;;;;;;;;;;5053394;28;20674;-85
2020/12/12 11:05:43;;;;;;;28.33;26.23;;;;;;;;;;5053844;28;20727;-86
2020/12/12 11:08:10;;;;;;;29.40;27.20;;;;;;;;;;5057869;28;20188;-85
2020/12/12 11:10:38;;;;;;;29.92;27.73;;;;;;;;;;5057625;28;20634;-85
2020/12/12 11:13:05;;;;;;;31.52;29.13;;;;;;;;;;5058078;28;20657;-84
2020/12/12 11:15:32;;;;;;;29.65;27.35;;;;;;;;;;5058002;28;20188;-85
2020/12/12 11:18:00;;;;;;;27.27;25.25;;;;;;;;;;5040319;28;20252;-84
2020/12/12 11:20:27;;;;;;;28.15;26.00;;;;;;;;;;5057520;28;20191;-81
2020/12/12 11:22:55;;;;;;;28.65;26.48;;;;;;;;;;5057639;28;20219;-85
2020/12/12 11:25:22;;;;;;;29.20;26.80;;;;;;;;;;5057261;28;20707;-85
2020/12/12 11:27:51;;;;;;;28.13;26.02;;;;;;;;;;5057148;28;20192;-84
2020/12/12 11:30:19;;;;;;;28.90;26.80;;;;;;;;;;5057820;28;20209;-84
2020/12/12 11:32:46;;;;;;;29.80;27.63;;;;;;;;;;5058461;28;20679;-80
2020/12/12 11:35:16;;;;;;;29.55;27.30;;;;;;;;;;5057479;28;20199;-82
2020/12/12 11:37:56;;;;;;;26.60;24.90;;;;;;;;;;5056155;28;20206;-85
2020/12/12 11:40:26;;;;;;;27.60;25.73;;;;;;;;;;5056342;28;20257;-86
2020/12/12 11:48:32;;;;;;;29.80;27.60;;;;;;;;;;5035547;28;20242;-86
2020/12/12 11:50:59;;;;;;;28.20;26.10;;;;;;;;;;5035342;28;20192;-90
2020/12/12 11:53:26;;;;;;;28.13;26.13;;;;;;;;;;5035579;28;20565;-91
2020/12/12 11:55:53;;;;;;;32.75;30.15;;;;;;;;;;5035261;28;20256;-90
2020/12/12 11:58:21;;;;;;;29.30;27.10;;;;;;;;;;5035270;28;20326;-91
2020/12/12 12:00:48;;;;;;;26.70;24.85;;;;;;;;;;5035451;28;20224;-89
2020/12/12 12:03:16;;;;;;;28.35;26.50;;;;;;;;;;5035052;28;20236;-90
2020/12/12 12:05:44;;;;;;;27.98;25.98;;;;;;;;;;5035295;28;20281;-91
2020/12/12 12:08:22;;;;;;;28.33;26.25;;;;;;;;;;5035378;28;20288;-90
2020/12/12 12:11:07;;;;;;;28.02;26.02;;;;;;;;;;5020061;28;20570;-91
2020/12/12 12:13:35;;;;;;;27.77;25.77;;;;;;;;;;5035261;28;20200;-91
2020/12/12 12:16:02;;;;;;;28.25;26.05;;;;;;;;;;5034984;28;20275;-91
2020/12/12 12:18:29;;;;;;;28.30;26.27;;;;;;;;;;5034488;28;20242;-86
2020/12/12 12:20:59;;;;;;;28.20;26.30;;;;;;;;;;5046910;28;20210;-89
2020/12/12 12:23:26;;;;;;;27.77;25.70;;;;;;;;;;5077025;28;20192;-89
2020/12/12 12:25:53;;;;;;;26.27;24.48;;;;;;;;;;5077541;28;20599;-89
2020/12/12 12:28:20;;;;;;;26.23;24.42;;;;;;;;;;5078623;28;20258;-89
2020/12/12 12:30:48;;;;;;;28.33;26.33;;;;;;;;;;5078320;28;20602;-89
2020/12/12 12:33:15;;;;;;;26.73;24.95;;;;;;;;;;5079670;28;20201;-89
2020/12/12 12:35:42;;;;;;;28.90;26.85;;;;;;;;;;5078749;28;20184;-83
2020/12/12 12:38:09;;;;;;;28.02;26.10;;;;;;;;;;5077955;28;20183;-88
2020/12/12 12:40:37;;;;;;;28.27;26.20;;;;;;;;;;5078764;28;20187;-88
2020/12/12 12:43:04;;;;;;;28.40;26.30;;;;;;;;;;5079381;28;20573;-89
2020/12/12 12:45:31;;;;;;;27.83;25.60;;;;;;;;;;5079219;28;20755;-89
2020/12/12 12:47:59;;;;;;;28.87;26.70;;;;;;;;;;5078644;28;20191;-89
2020/12/12 12:50:34;;;;;;;27.75;25.67;;;;;;;;;;5076760;28;20421;-89
2020/12/12 12:53:01;;;;;;;26.27;24.38;;;;;;;;;;5076593;28;20200;-88
2020/12/12 12:55:28;;;;;;;28.08;26.02;;;;;;;;;;5076625;28;20720;-88
2020/12/12 12:57:55;;;;;;;27.90;25.90;;;;;;;;;;5077068;28;20203;-88
2020/12/12 13:00:22;;;;;;;27.27;25.47;;;;;;;;;;5077646;28;20509;-88
2020/12/12 13:02:49;;;;;;;27.38;25.58;;;;;;;;;;5076162;28;20531;-88
2020/12/12 13:05:16;;;;;;;27.50;25.60;;;;;;;;;;5075715;28;20230;-88
2020/12/12 13:07:43;;;;;;;28.33;26.52;;;;;;;;;;5075970;28;20229;-88
2020/12/12 13:10:10;;;;;;;27.47;25.47;;;;;;;;;;5075864;28;20188;-87
2020/12/12 13:12:37;;;;;;;25.48;23.77;;;;;;;;;;5058151;28;20409;-88
2020/12/12 13:15:04;;;;;;;26.80;24.85;;;;;;;;;;5076017;28;20191;-88
2020/12/12 13:17:31;;;;;;;24.75;23.23;;;;;;;;;;5075880;28;20684;-86
2020/12/12 13:20:10;;;;;;;25.40;23.53;;;;;;;;;;5076908;28;20233;-87
2020/12/12 13:22:38;;;;;;;26.52;24.73;;;;;;;;;;5075821;28;20419;-92
2020/12/12 13:25:05;;;;;;;25.95;24.25;;;;;;;;;;5074364;28;20772;-79
2020/12/12 13:27:32;;;;;;;26.93;25.03;;;;;;;;;;5075222;28;20209;-86
2020/12/12 13:30:19;;;;;;;26.58;24.70;;;;;;;;;;5075156;28;20408;-83
2020/12/12 13:32:46;;;;;;;26.90;25.13;;;;;;;;;;5075204;28;20222;-87
2020/12/12 13:35:14;;;;;;;25.17;23.58;;;;;;;;;;5075033;28;20201;-87
2020/12/12 13:37:42;;;;;;;25.10;23.27;;;;;;;;;;5075263;28;20237;-87
2020/12/12 13:40:09;;;;;;;25.20;23.45;;;;;;;;;;5075239;28;20524;-87
2020/12/12 13:42:36;;;;;;;26.67;24.88;;;;;;;;;;5075182;28;20192;-86
2020/12/12 13:45:05;;;;;;;25.63;23.98;;;;;;;;;;5075081;28;20214;-86
2020/12/12 13:47:32;;;;;;;26.48;24.48;;;;;;;;;;5074856;28;20213;-82
2020/12/12 13:49:59;;;;;;;25.53;23.90;;;;;;;;;;5074326;28;20245;-80
2020/12/12 13:52:26;;;;;;;25.77;24.07;;;;;;;;;;5074559;28;20419;-81
2020/12/12 13:54:54;;;;;;;27.30;25.50;;;;;;;;;;5074209;28;20455;-80
2020/12/12 13:57:21;;;;;;;60.87;52.53;;;;;;;;;;5074449;28;20432;-81
2020/12/12 13:59:48;;;;;;;33.97;31.00;;;;;;;;;;5074330;28;20415;-81
2020/12/12 14:02:14;;;;;;;36.13;33.13;;;;;;;;;;5074088;28;20287;-81
2020/12/12 14:04:41;;;;;;;27.95;25.85;;;;;;;;;;5074570;28;20197;-81
2020/12/12 14:07:15;;;;;;;27.13;25.23;;;;;;;;;;5074059;28;20207;-81
2020/12/12 14:20:59;;;;;;;26.83;25.00;;;;;;;;;;5074285;28;20557;-82
2020/12/12 14:23:26;;;;;;;26.43;24.43;;;;;;;;;;5074640;28;20419;-82
2020/12/12 14:28:36;;;;;;;25.33;23.58;;;;;;;;;;5073900;28;20511;-82
2020/12/12 14:31:03;;;;;;;24.77;23.03;;;;;;;;;;5056686;28;20195;-82
2020/12/12 14:33:30;;;;;;;26.03;24.20;;;;;;;;;;5074336;28;20442;-82
2020/12/12 14:35:56;;;;;;;25.20;23.53;;;;;;;;;;5073844;28;20445;-82
2020/12/12 14:38:25;;;;;;;26.88;24.88;;;;;;;;;;5073954;28;20524;-82
2020/12/12 14:40:52;;;;;;;25.25;23.45;;;;;;;;;;5075533;28;20654;-82